Data for 12/18/2016

Time Sea-Level Adjusted Pressure Absolute Pressure Temperature Relative Humidity Dew Point   
(mb) (inHg) (mb) (inHg) (C) (F) (%) (C) (F)
00:05 1020 30.12 849 25.07 -20 -3.9 70 -24.1 -11.3
00:10 1020 30.12 849 25.07 -20.2 -4.4 69 -24.5 -12.2
00:15 1020 30.12 849 25.07 -20.2 -4.3 71 -24.2 -11.5
00:20 1020 30.12 849 25.07 -19.9 -3.9 67 -24.6 -12.3
00:25 1020 30.12 849 25.07 -19.3 -2.7 64 -24.5 -12.1
00:30 1020 30.12 849 25.07 -18.8 -1.8 62 -24.3 -11.8
00:35 1020 30.12 849 25.07 -18.5 -1.3 61 -24.2 -11.6
00:40 1020 30.12 849 25.07 -18.4 -1.2 61 -24.3 -11.7
00:45 1020 30.12 849 25.07 -18.1 -0.6 60 -24.1 -11.3
00:50 1020 30.12 849 25.07 -18 -0.5 61 -23.9 -11
00:55 1020 30.12 849 25.07 -17.8 0 59 -24 -11.1
01:00 1020 30.12 849 25.07 -17.4 0.6 59 -23.6 -10.5
01:05 1020 30.12 849 25.07 -17.3 0.9 58 -23.7 -10.6
01:10 1020 30.12 849 25.07 -17.2 1 59 -23.5 -10.4
01:15 1020 30.12 849 25.07 -17 1.3 57 -23.6 -10.5
01:20 1020 30.12 849 25.07 -17 1.4 58 -23.4 -10
01:25 1020 30.12 849 25.07 -16.8 1.8 59 -23 -9.3
01:30 1020 30.12 850 25.1 -16.6 2 59 -22.8 -9.1
01:35 1020 30.12 850 25.1 -16.3 2.6 58 -22.8 -9.1
01:40 1020 30.12 850 25.1 -16.1 2.9 57 -22.8 -9
01:45 1020 30.12 850 25.1 -16.3 2.6 58 -22.7 -8.8
01:50 1020 30.12 850 25.1 -16.5 2.4 59 -22.8 -9
01:55 1020 30.12 850 25.1 -16.8 1.8 60 -22.8 -9
02:00 1020 30.12 850 25.1 -16.8 1.7 60 -22.8 -9.1
02:05 1021 30.15 850 25.1 -16.4 2.4 60 -22.5 -8.5
02:10 1021 30.15 850 25.1 -16.2 2.9 61 -22.1 -7.8
02:15 1021 30.15 850 25.1 -16 3.2 59 -22.2 -8
02:20 1021 30.15 850 25.1 -15.9 3.4 62 -21.6 -6.9
02:25 1021 30.15 850 25.1 -16.1 3 62 -21.7 -7.1
02:30 1021 30.15 850 25.1 -16 3.3 60 -22.1 -7.8
02:35 1021 30.15 850 25.1 -16 3.3 61 -21.8 -7.2
02:40 1021 30.15 850 25.1 -16.1 3 61 -22 -7.7
02:45 1021 30.15 850 25.1 -16.2 2.8 58 -22.7 -8.8
02:50 1021 30.15 850 25.1 -16.2 2.9 59 -22.5 -8.5
02:55 1021 30.15 850 25.1 -16.1 3 58 -22.6 -8.7
03:00 1021 30.15 850 25.1 -16.1 3 57 -22.7 -8.9
03:05 1021 30.15 850 25.1 -16.4 2.5 61 -22.3 -8.2
03:10 1021 30.15 851 25.13 -16.3 2.6 65 -21.5 -6.6
03:15 1021 30.15 851 25.13 -16.4 2.5 64 -21.8 -7.2
03:20 1021 30.15 851 25.13 -16.3 2.7 64 -21.6 -6.9
03:25 1022 30.18 851 25.13 -16.1 3.1 62 -21.7 -7.1
03:30 1022 30.18 851 25.13 -15.9 3.4 62 -21.7 -7
03:35 1022 30.18 851 25.13 -15.8 3.6 61 -21.7 -7.1
03:40 1022 30.18 851 25.13 -15.8 3.5 61 -21.8 -7.3
03:45 1022 30.18 851 25.13 -15.7 3.7 60 -21.8 -7.3
03:50 1022 30.18 851 25.13 -15.6 4 59 -21.8 -7.2
03:55 1022 30.18 851 25.13 -15.4 4.2 60 -21.5 -6.7
04:00 1022 30.18 851 25.13 -15.4 4.4 60 -21.4 -6.6
04:05 1022 30.18 851 25.13 -15.5 4.1 59 -21.9 -7.4
04:10 1022 30.18 851 25.13 -15.8 3.6 60 -22 -7.6
04:15 1022 30.18 851 25.13 -15.7 3.7 59 -22 -7.6
04:20 1022 30.18 851 25.13 -15.5 4 60 -21.7 -7.1
04:25 1022 30.18 851 25.13 -15.3 4.4 57 -21.9 -7.5
04:30 1022 30.18 851 25.13 -15.3 4.6 57 -21.9 -7.5
04:35 1022 30.18 851 25.13 -15.2 4.7 58 -21.8 -7.2
04:40 1022 30.18 851 25.13 -14.9 5.1 56 -21.8 -7.2
04:45 1022 30.18 851 25.13 -14.7 5.5 57 -21.5 -6.8
04:50 1022 30.18 851 25.13 -14.5 5.9 54 -21.9 -7.4
04:55 1022 30.18 851 25.13 -14.4 6.1 53 -22 -7.5
05:00 1022 30.18 851 25.13 -14.4 6.2 55 -21.6 -7
05:05 1022 30.18 851 25.13 -14.2 6.4 54 -21.7 -7.1
05:10 1022 30.18 851 25.13 -14.1 6.6 53 -21.7 -7.1
05:15 1022 30.18 851 25.13 -14.1 6.7 56 -21 -5.8
05:20 1022 30.18 851 25.13 -14.1 6.6 57 -20.9 -5.6
05:25 1022 30.18 851 25.13 -14.2 6.4 59 -20.5 -4.9
05:30 1022 30.18 852 25.16 -14.3 6.3 58 -20.9 -5.7
05:35 1022 30.18 852 25.16 -13.9 7 57 -20.7 -5.3
05:40 1022 30.18 851 25.13 -13.7 7.4 56 -20.6 -5.1
05:45 1022 30.18 851 25.13 -13.6 7.6 56 -20.6 -5.1
05:50 1022 30.18 852 25.16 -13.4 7.8 57 -20.3 -4.6
05:55 1022 30.18 852 25.16 -13.4 7.8 56 -20.5 -4.9
06:00 1022 30.18 852 25.16 -13.4 7.9 56 -20.5 -4.8
06:05 1023 30.21 852 25.16 -13.3 8.1 56 -20.4 -4.7
06:10 1023 30.21 852 25.16 -13.3 8.1 56 -20.4 -4.7
06:15 1023 30.21 852 25.16 -13.2 8.2 56 -20.3 -4.6
06:20 1023 30.21 852 25.16 -13.2 8.3 57 -20.1 -4.1
06:25 1023 30.21 852 25.16 -13.3 8.2 58 -19.9 -3.8
06:30 1023 30.21 852 25.16 -13.4 8 58 -20 -4
06:35 1023 30.21 852 25.16 -13.4 7.8 57 -20.2 -4.3
06:40 1023 30.21 852 25.16 -13.4 7.9 57 -20.3 -4.6
06:45 1023 30.21 852 25.16 -13.5 7.8 57 -20.2 -4.4
06:50 1023 30.21 852 25.16 -13.6 7.5 58 -20.1 -4.3
06:55 1023 30.21 852 25.16 -13.8 7.3 57 -20.5 -4.9
07:00 1023 30.21 852 25.16 -13.8 7.1 58 -20.4 -4.8
07:05 1023 30.21 852 25.16 -13.8 7.2 58 -20.3 -4.6
07:10 1023 30.21 852 25.16 -13.8 7.2 57 -20.5 -5
07:15 1023 30.21 852 25.16 -13.8 7.2 58 -20.5 -4.8
07:20 1023 30.21 852 25.16 -14.1 6.5 58 -20.8 -5.4
07:25 1023 30.21 852 25.16 -14.2 6.4 58 -20.9 -5.6
07:30 1023 30.21 852 25.16 -14.2 6.4 59 -20.7 -5.2
07:35 1023 30.21 852 25.16 -14.1 6.7 58 -20.6 -5.2
07:40 1023 30.21 852 25.16 -13.8 7.2 57 -20.6 -5
07:45 1023 30.21 852 25.16 -13.6 7.5 57 -20.4 -4.6
07:50 1023 30.21 852 25.16 -13.7 7.4 57 -20.4 -4.8
07:55 1023 30.21 852 25.16 -13.4 7.9 56 -20.5 -4.9
08:00 1023 30.21 853 25.19 -13.4 8 57 -20.1 -4.2
08:05 1023 30.21 853 25.19 -13.2 8.2 56 -20.2 -4.3
08:10 1023 30.21 853 25.19 -13.6 7.5 59 -20 -4
08:15 1024 30.24 853 25.19 -13.9 6.9 59 -20.3 -4.5
08:20 1024 30.24 853 25.19 -13.8 7.3 58 -20.3 -4.5
08:25 1024 30.24 853 25.19 -13.7 7.3 58 -20.3 -4.5
08:30 1024 30.24 853 25.19 -13.7 7.3 59 -20 -4.1
08:35 1024 30.24 853 25.19 -13.6 7.6 58 -20.2 -4.3
08:40 1024 30.24 853 25.19 -13.5 7.8 58 -20.1 -4.1
08:45 1024 30.24 853 25.19 -13.4 7.8 58 -20 -4
08:50 1024 30.24 853 25.19 -13.5 7.8 58 -20 -3.9
08:55 1024 30.24 853 25.19 -13.5 7.8 58 -20 -4
09:00 1024 30.24 853 25.19 -13.3 8 58 -20 -4.1
09:05 1024 30.24 853 25.19 -13.1 8.3 57 -20 -3.9
09:10 1024 30.24 853 25.19 -13 8.7 55 -20.2 -4.3
09:15 1024 30.24 853 25.19 -12.4 9.6 53 -20.2 -4.4
09:20 1024 30.24 853 25.19 -11.9 10.6 53 -19.6 -3.2
09:25 1024 30.24 853 25.19 -11.5 11.4 53 -19.3 -2.8
09:30 1024 30.24 853 25.19 -11 12.2 52 -19 -2.2
09:35 1024 30.24 853 25.19 -10.9 12.4 54 -18.5 -1.3
09:40 1024 30.24 853 25.19 -10.7 12.8 52 -18.7 -1.7
09:45 1024 30.24 853 25.19 -10.3 13.4 51 -18.8 -1.8
09:50 1024 30.24 853 25.19 -10.4 13.4 52 -18.5 -1.3
09:55 1024 30.24 853 25.19 -10.3 13.5 51 -18.7 -1.7
10:00 1024 30.24 853 25.19 -10.1 13.9 50 -18.5 -1.3
10:05 1024 30.24 853 25.19 -10.1 13.9 49 -18.8 -1.9
10:10 1024 30.24 853 25.19 -9.8 14.3 50 -18.3 -1
10:15 1024 30.24 853 25.19 -9.3 15.2 48 -18.4 -1.1
10:20 1024 30.24 853 25.19 -9.5 15 49 -18.3 -1
10:25 1024 30.24 853 25.19 -9.6 14.7 48 -18.6 -1.5
10:30 1024 30.24 853 25.19 -9.4 15 50 -18.1 -0.6
10:35 1024 30.24 853 25.19 -10 14 53 -17.9 -0.2
10:40 1024 30.24 853 25.19 -10.1 13.8 51 -18.4 -1.1
10:45 1024 30.24 853 25.19 -9.4 15 50 -18.1 -0.7
10:50 1024 30.24 853 25.19 -8.8 16.2 49 -17.7 0.1
10:55 1024 30.24 853 25.19 -8.2 17.2 45 -18.3 -0.9
11:00 1024 30.24 853 25.19 -8.6 16.6 46 -18.2 -0.7
11:05 1024 30.24 853 25.19 -9.5 15 48 -18.6 -1.5
11:10 1024 30.24 853 25.19 -10.1 13.8 51 -18.4 -1.1
11:15 1024 30.24 853 25.19 -10.7 12.8 51 -18.9 -2
11:20 1024 30.24 853 25.19 -10.9 12.4 53 -18.7 -1.7
11:25 1024 30.24 853 25.19 -10.7 12.7 52 -18.7 -1.6
11:30 1024 30.24 853 25.19 -10.9 12.4 53 -18.6 -1.5
11:35 1024 30.24 853 25.19 -11.1 12.1 54 -18.6 -1.5
11:40 1024 30.24 853 25.19 -10.7 12.8 53 -18.5 -1.3
11:45 1024 30.24 853 25.19 -10.2 13.6 52 -18.2 -0.8
11:50 1024 30.24 853 25.19 -10.3 13.5 53 -18.1 -0.5
11:55 1024 30.24 853 25.19 -9.7 14.6 51 -18.1 -0.5
12:00 1024 30.24 853 25.19 -8.7 16.4 47 -18.1 -0.6
12:05 1024 30.24 853 25.19 -8.1 17.4 44 -18.5 -1.2
12:10 1024 30.24 853 25.19 -7.9 17.8 44 -18.2 -0.8
12:15 1024 30.24 853 25.19 -7.8 17.9 45 -17.7 0.1
12:20 1024 30.24 853 25.19 -7.8 17.9 45 -17.9 -0.3
12:25 1024 30.24 853 25.19 -8.1 17.5 46 -17.8 -0
12:30 1024 30.24 853 25.19 -8.5 16.7 46 -18.2 -0.7
12:35 1024 30.24 853 25.19 -8.4 16.8 46 -18.2 -0.7
12:40 1024 30.24 853 25.19 -8 17.7 46 -17.8 0
12:45 1024 30.24 853 25.19 -7.5 18.5 44 -17.7 0.1
12:50 1024 30.24 853 25.19 -7.3 18.9 45 -17.4 0.7
12:55 1024 30.24 853 25.19 -7.3 18.9 46 -16.9 1.5
13:00 1024 30.24 853 25.19 -8 17.6 47 -17.3 0.8
13:05 1024 30.24 853 25.19 -8.7 16.4 49 -17.6 0.3
13:10 1024 30.24 853 25.19 -8.8 16.1 50 -17.4 0.7
13:15 1024 30.24 853 25.19 -8.3 17 48 -17.6 0.3
13:20 1024 30.24 853 25.19 -8 17.5 47 -17.4 0.7
13:25 1024 30.24 853 25.19 -7.7 18.1 46 -17.5 0.5
13:30 1024 30.24 853 25.19 -7.6 18.3 47 -17.1 1.1
13:35 1024 30.24 853 25.19 -7.6 18.4 46 -17.4 0.7
13:40 1024 30.24 853 25.19 -7.4 18.7 45 -17.5 0.5
13:45 1024 30.24 853 25.19 -7.7 18.1 48 -16.9 1.5
13:50 1024 30.24 853 25.19 -7.9 17.8 49 -16.9 1.7
13:55 1024 30.24 853 25.19 -7.8 18 48 -16.9 1.6
14:00 1024 30.24 853 25.19 -7.6 18.3 49 -16.5 2.3
14:05 1024 30.24 853 25.19 -7.5 18.5 50 -16.1 3
14:10 1024 30.24 853 25.19 -7.3 18.9 48 -16.7 2
14:15 1023 30.21 853 25.19 -7.6 18.4 50 -16.2 2.8
14:20 1024 30.24 853 25.19 -7.8 17.9 52 -16 3.2
14:25 1024 30.24 853 25.19 -8.5 16.8 54 -16.3 2.7
14:30 1024 30.24 853 25.19 -8.7 16.4 52 -16.9 1.5
14:35 1024 30.24 853 25.19 -8.3 17.1 50 -17 1.4
14:40 1024 30.24 853 25.19 -8.8 16.2 52 -17 1.5
14:45 1024 30.24 853 25.19 -9 15.8 54 -16.8 1.8
14:50 1024 30.24 853 25.19 -8.6 16.5 54 -16.3 2.7
14:55 1024 30.24 853 25.19 -8.4 16.8 52 -16.5 2.3
15:00 1024 30.24 853 25.19 -8.5 16.6 52 -16.6 2.1
15:05 1024 30.24 853 25.19 -8.7 16.4 52 -16.8 1.8
15:10 1024 30.24 853 25.19 -8.7 16.4 52 -17 1.5
15:15 1024 30.24 853 25.19 -8.5 16.6 50 -17.2 1.1
15:20 1024 30.24 853 25.19 -8.4 16.9 50 -17 1.4
15:25 1024 30.24 853 25.19 -9.2 15.5 54 -16.8 1.8
15:30 1024 30.24 853 25.19 -9.1 15.6 54 -16.9 1.6
15:35 1024 30.24 853 25.19 -9.3 15.3 53 -17.1 1.1
15:40 1024 30.24 853 25.19 -9.6 14.8 54 -17.2 1
15:45 1024 30.24 853 25.19 -9.7 14.6 54 -17.3 0.9
15:50 1024 30.24 853 25.19 -9.5 14.8 55 -17.1 1.3
15:55 1024 30.24 853 25.19 -9.1 15.5 52 -17.3 0.9
16:00 1024 30.24 853 25.19 -9.1 15.7 54 -16.9 1.7
16:05 1024 30.24 854 25.22 -8.9 15.9 52 -17 1.4
16:10 1025 30.27 854 25.22 -9 15.9 52 -17 1.3
16:15 1025 30.27 854 25.22 -8.9 16 52 -17.1 1.2
16:20 1025 30.27 854 25.22 -8.8 16.1 52 -17 1.3
16:25 1025 30.27 854 25.22 -8.8 16.2 52 -17 1.4
16:30 1025 30.27 854 25.22 -8.8 16.2 53 -16.8 1.8
16:35 1025 30.27 854 25.22 -8.7 16.4 52 -16.9 1.6
16:40 1025 30.27 854 25.22 -8.8 16.1 53 -16.8 1.8
16:45 1025 30.27 854 25.22 -9 15.8 54 -16.7 1.9
16:50 1025 30.27 854 25.22 -9.1 15.7 53 -17 1.4
16:55 1025 30.27 854 25.22 -9.2 15.5 53 -17.1 1.3
17:00 1025 30.27 854 25.22 -9.3 15.3 53 -17.3 0.8
17:05 1025 30.27 854 25.22 -9.2 15.4 53 -17.1 1.2
17:10 1025 30.27 854 25.22 -9.3 15.3 52 -17.4 0.7
17:15 1025 30.27 854 25.22 -9.4 15.1 53 -17.3 0.9
17:20 1025 30.27 854 25.22 -9.5 14.9 53 -17.4 0.8
17:25 1025 30.27 854 25.22 -9.6 14.6 53 -17.5 0.4
17:30 1025 30.27 854 25.22 -9.7 14.5 53 -17.6 0.2
17:35 1025 30.27 854 25.22 -9.5 14.9 52 -17.7 0.1
17:40 1025 30.27 854 25.22 -9.5 15 52 -17.7 0.1
17:45 1025 30.27 854 25.22 -9.4 15.1 53 -17.4 0.7
17:50 1025 30.27 854 25.22 -9.6 14.7 55 -17.1 1.2
17:55 1025 30.27 854 25.22 -9.9 14.3 57 -16.8 1.8
18:00 1025 30.27 854 25.22 -10 14 57 -17.1 1.3
18:05 1025 30.27 854 25.22 -9.8 14.4 56 -17 1.5
18:10 1025 30.27 854 25.22 -9.5 14.9 55 -17 1.3
18:15 1025 30.27 854 25.22 -9.3 15.3 55 -16.8 1.7
18:20 1025 30.27 854 25.22 -9 15.8 53 -16.9 1.6
18:25 1025 30.27 854 25.22 -8.8 16.2 54 -16.5 2.3
18:30 1025 30.27 854 25.22 -8.8 16.2 55 -16.4 2.5
18:35 1025 30.27 854 25.22 -8.9 16.1 55 -16.3 2.7
18:40 1025 30.27 854 25.22 -9 15.8 56 -16.3 2.6
18:45 1025 30.27 854 25.22 -9 15.8 57 -16.1 3
18:50 1025 30.27 855 25.25 -9.1 15.7 57 -16.2 2.9
18:55 1025 30.27 855 25.25 -9.2 15.5 59 -15.9 3.4
19:00 1025 30.27 854 25.22 -9.4 15.1 61 -15.6 3.9
19:05 1025 30.27 854 25.22 -9.7 14.6 60 -16 3.2
19:10 1025 30.27 854 25.22 -9.8 14.5 61 -16 3.3
19:15 1025 30.27 854 25.22 -9.6 14.8 59 -16.2 2.8
19:20 1025 30.27 854 25.22 -9.3 15.2 58 -16.1 3
19:25 1025 30.27 854 25.22 -9.3 15.3 57 -16.4 2.5
19:30 1025 30.27 854 25.22 -9.1 15.6 55 -16.5 2.3
19:35 1025 30.27 854 25.22 -9.1 15.6 55 -16.6 2.2
19:40 1025 30.27 854 25.22 -9 15.8 55 -16.5 2.3
19:45 1025 30.27 854 25.22 -9.2 15.5 58 -16 3.1
19:50 1025 30.27 854 25.22 -9.8 14.3 61 -16 3.2
19:55 1025 30.27 854 25.22 -10.1 13.9 63 -15.9 3.3
20:00 1025 30.27 855 25.25 -10.3 13.4 66 -15.5 4.1
20:05 1025 30.27 855 25.25 -10.3 13.5 62 -16.2 2.9
20:10 1026 30.3 855 25.25 -9.9 14.3 63 -15.7 3.8
20:15 1026 30.3 855 25.25 -10 14 62 -16 3.3
20:20 1026 30.3 855 25.25 -10 13.9 63 -15.8 3.6
20:25 1026 30.3 855 25.25 -9.9 14.3 61 -16.1 3.1
20:30 1026 30.3 855 25.25 -9.8 14.4 61 -15.9 3.4
20:35 1026 30.3 855 25.25 -10.1 13.8 60 -16.4 2.4
20:40 1026 30.3 855 25.25 -9.7 14.5 59 -16.2 2.8
20:45 1026 30.3 855 25.25 -9.8 14.3 60 -16.3 2.7
20:50 1026 30.3 855 25.25 -9.6 14.8 59 -16.1 2.9
20:55 1026 30.3 855 25.25 -9.7 14.5 58 -16.5 2.3
21:00 1026 30.3 855 25.25 -9.8 14.4 57 -16.8 1.8
21:05 1026 30.3 855 25.25 -9.9 14.1 57 -16.9 1.5
21:10 1026 30.3 855 25.25 -10.1 13.8 57 -17 1.4
21:15 1026 30.3 855 25.25 -10.1 13.8 57 -17.1 1.3
21:20 1026 30.3 855 25.25 -10.2 13.6 58 -17.1 1.3
21:25 1026 30.3 855 25.25 -10.6 12.9 58 -17.4 0.7
21:30 1026 30.3 855 25.25 -10.3 13.6 57 -17.3 0.9
21:35 1025 30.27 855 25.25 -10.3 13.4 57 -17.3 0.9
21:40 1025 30.27 855 25.25 -10.6 13 58 -17.3 0.9
21:45 1025 30.27 855 25.25 -11 12.3 59 -17.5 0.4
21:50 1025 30.27 855 25.25 -11.2 11.8 59 -17.7 0.2
21:55 1025 30.27 855 25.25 -10.8 12.6 58 -17.6 0.4
22:00 1025 30.27 855 25.25 -10.6 12.9 57 -17.5 0.4
22:05 1025 30.27 855 25.25 -10.8 12.6 58 -17.4 0.6
22:10 1026 30.3 855 25.25 -10.9 12.4 59 -17.5 0.5
22:15 1026 30.3 855 25.25 -10.8 12.5 58 -17.5 0.5
22:20 1026 30.3 855 25.25 -10.7 12.7 59 -17.3 0.8
22:25 1026 30.3 855 25.25 -10.9 12.3 60 -17.2 1
22:30 1025 30.27 855 25.25 -11.5 11.4 62 -17.3 0.8
22:35 1025 30.27 855 25.25 -11.5 11.2 60 -17.8 0
22:40 1025 30.27 855 25.25 -11.4 11.4 61 -17.5 0.6
22:45 1025 30.27 855 25.25 -11.3 11.6 59 -17.9 -0.1
22:50 1025 30.27 855 25.25 -10.4 13.4 56 -17.6 0.3
22:55 1025 30.27 855 25.25 -10 14.1 55 -17.4 0.6
23:00 1025 30.27 855 25.25 -9.9 14.2 55 -17.3 0.9
23:05 1025 30.27 855 25.25 -10.1 13.8 57 -17 1.4
23:10 1025 30.27 854 25.22 -11 12.1 59 -17.5 0.5
23:15 1025 30.27 854 25.22 -11.1 12 59 -17.7 0.1
23:20 1025 30.27 855 25.25 -10.6 12.9 58 -17.3 0.9
23:25 1025 30.27 855 25.25 -10.7 12.8 59 -17.2 1
23:30 1025 30.27 855 25.25 -10.5 13.2 57 -17.4 0.7
23:35 1025 30.27 855 25.25 -10.4 13.3 57 -17.4 0.6
23:40 1025 30.27 854 25.22 -10.4 13.3 57 -17.4 0.7
23:45 1025 30.27 854 25.22 -10.7 12.8 57 -17.6 0.4
23:50 1025 30.27 854 25.22 -11 12.1 59 -17.6 0.3
23:55 1025 30.27 854 25.22 -12 10.3 61 -18.1 -0.5
24:00 1025 30.27 854 25.22 -13.6 7.5 69 -18.2 -0.8